Time;durP1;ratioP1;P1;durP2;ratioP2;P2;SDS_P1;SDS_P2;PMS_P1;PMS_P2;Temp;Humidity;BMP_temperature;BMP_pressure;BME280_temperature;BME280_humidity;BME280_pressure;Samples;Min_cycle;Max_cycle;Signal;HPM_P1;HPM_P2
2021/10/02 00:35:22;;;;;;;29.53;26.40;;;;;;;;;;5034279;28;20226;-71
2021/10/02 00:38:04;;;;;;;28.87;25.57;;;;;;;;;;5033273;28;20217;-71
2021/10/02 00:46:01;;;;;;;27.60;23.83;;;;;;;;;;5034550;28;20690;-71
2021/10/02 00:48:28;;;;;;;32.93;26.20;;;;;;;;;;5033159;28;21097;-71
2021/10/02 00:50:58;;;;;;;25.10;22.50;;;;;;;;;;5033473;28;20281;-71
2021/10/02 00:53:25;;;;;;;23.70;21.20;;;;;;;;;;5037110;28;20289;-71
2021/10/02 00:55:51;;;;;;;26.40;23.27;;;;;;;;;;5036868;28;20241;-71
2021/10/02 00:58:19;;;;;;;26.03;23.33;;;;;;;;;;5038235;28;20211;-71
2021/10/02 01:00:48;;;;;;;25.73;22.63;;;;;;;;;;5035287;28;20246;-71
2021/10/02 01:03:25;;;;;;;23.20;20.57;;;;;;;;;;5037596;28;20321;-71
2021/10/02 01:06:04;;;;;;;21.97;19.77;;;;;;;;;;5036552;28;20755;-71
2021/10/02 01:08:38;;;;;;;27.00;20.20;;;;;;;;;;5038671;28;20237;-71
2021/10/02 01:11:17;;;;;;;21.63;19.27;;;;;;;;;;5042040;28;20269;-71
2021/10/02 01:13:58;;;;;;;20.47;18.47;;;;;;;;;;5058719;28;20240;-71
2021/10/02 01:16:29;;;;;;;20.17;18.07;;;;;;;;;;5057196;28;20210;-71
2021/10/02 01:19:05;;;;;;;21.97;19.57;;;;;;;;;;5058200;28;20255;-72
2021/10/02 01:21:48;;;;;;;24.90;21.43;;;;;;;;;;5057952;28;20230;-72
2021/10/02 01:24:27;;;;;;;24.77;20.90;;;;;;;;;;5058233;28;20288;-71
2021/10/02 01:27:11;;;;;;;27.33;22.10;;;;;;;;;;5056707;28;20666;-71
2021/10/02 01:29:42;;;;;;;25.10;21.53;;;;;;;;;;5057797;28;20214;-71
2021/10/02 01:32:16;;;;;;;27.27;22.70;;;;;;;;;;5057001;28;20271;-71
2021/10/02 01:34:58;;;;;;;31.27;24.83;;;;;;;;;;5058570;28;20309;-72
2021/10/02 01:37:34;;;;;;;30.63;25.10;;;;;;;;;;5059054;28;20334;-71
2021/10/02 01:48:35;;;;;;;40.20;28.93;;;;;;;;;;5057518;28;20255;-71
2021/10/02 01:51:03;;;;;;;32.23;26.23;;;;;;;;;;5055615;28;20609;-71
2021/10/02 01:53:34;;;;;;;40.20;28.00;;;;;;;;;;5056247;28;20219;-71
2021/10/02 01:56:04;;;;;;;42.47;30.30;;;;;;;;;;5056997;28;20222;-71
2021/10/02 01:58:32;;;;;;;40.60;26.77;;;;;;;;;;5058350;28;20214;-71
2021/10/02 02:01:00;;;;;;;37.37;25.57;;;;;;;;;;5057640;28;20235;-72
2021/10/02 02:03:28;;;;;;;39.47;26.80;;;;;;;;;;5056502;28;20272;-72
2021/10/02 02:05:55;;;;;;;35.63;25.23;;;;;;;;;;5058021;28;20707;-72
2021/10/02 02:08:24;;;;;;;34.43;23.60;;;;;;;;;;5057143;28;20210;-72
2021/10/02 02:10:51;;;;;;;30.90;24.10;;;;;;;;;;5057420;28;20723;-72
2021/10/02 02:13:19;;;;;;;32.93;25.37;;;;;;;;;;5057245;28;20206;-72
2021/10/02 02:15:47;;;;;;;34.60;24.23;;;;;;;;;;5056933;28;20269;-72
2021/10/02 02:18:17;;;;;;;33.50;25.17;;;;;;;;;;5054765;28;20211;-72
2021/10/02 02:20:45;;;;;;;28.03;21.17;;;;;;;;;;5056440;28;20368;-72
2021/10/02 02:23:13;;;;;;;31.53;21.73;;;;;;;;;;5057226;28;20620;-72
2021/10/02 02:25:40;;;;;;;19.93;16.07;;;;;;;;;;5056184;28;20211;-72
2021/10/02 02:28:08;;;;;;;24.33;18.90;;;;;;;;;;5056727;28;20275;-72
2021/10/02 02:30:36;;;;;;;29.90;20.97;;;;;;;;;;5055761;28;20298;-72
2021/10/02 02:33:04;;;;;;;27.00;21.10;;;;;;;;;;5057830;28;20268;-72
2021/10/02 02:35:32;;;;;;;24.87;20.97;;;;;;;;;;5055861;28;20287;-72
2021/10/02 02:38:00;;;;;;;34.67;23.37;;;;;;;;;;5058094;28;20260;-72
2021/10/02 02:40:28;;;;;;;34.10;24.17;;;;;;;;;;5055921;28;20222;-72
2021/10/02 02:42:54;;;;;;;31.60;22.63;;;;;;;;;;5055767;28;20210;-72
2021/10/02 02:45:22;;;;;;;29.77;23.43;;;;;;;;;;5056109;28;20622;-72
2021/10/02 02:47:50;;;;;;;31.13;25.07;;;;;;;;;;5055647;28;20264;-71
2021/10/02 02:50:24;;;;;;;34.07;27.63;;;;;;;;;;5056409;28;20227;-72
2021/10/02 02:52:58;;;;;;;35.50;28.40;;;;;;;;;;5055509;28;20206;-72
2021/10/02 02:55:26;;;;;;;40.77;30.70;;;;;;;;;;5054359;28;20680;-72
2021/10/02 02:57:56;;;;;;;35.17;28.87;;;;;;;;;;5055627;28;20246;-72
2021/10/02 03:00:25;;;;;;;43.20;32.37;;;;;;;;;;5056309;28;20311;-72
2021/10/02 03:02:54;;;;;;;48.87;34.57;;;;;;;;;;5054920;28;20213;-71
2021/10/02 03:05:22;;;;;;;38.10;30.00;;;;;;;;;;5055349;28;20234;-72
2021/10/02 03:07:53;;;;;;;44.33;33.00;;;;;;;;;;5055833;28;20214;-72
2021/10/02 03:10:21;;;;;;;47.80;34.67;;;;;;;;;;5056494;28;20218;-72
2021/10/02 03:12:49;;;;;;;52.50;36.27;;;;;;;;;;5054623;28;20620;-72
2021/10/02 03:15:17;;;;;;;53.33;35.30;;;;;;;;;;5053950;28;20568;-72
2021/10/02 03:17:46;;;;;;;46.07;33.40;;;;;;;;;;5055097;28;20603;-72
2021/10/02 03:20:14;;;;;;;52.97;36.20;;;;;;;;;;5055572;28;20299;-72
2021/10/02 03:22:41;;;;;;;48.63;35.67;;;;;;;;;;5055320;28;20286;-72
2021/10/02 03:25:09;;;;;;;70.20;39.27;;;;;;;;;;5055258;28;20206;-72
2021/10/02 03:27:38;;;;;;;54.13;37.37;;;;;;;;;;5054392;28;20660;-72
2021/10/02 03:30:06;;;;;;;44.20;34.97;;;;;;;;;;5053832;28;20210;-72
2021/10/02 03:32:32;;;;;;;52.30;37.13;;;;;;;;;;5056537;28;20845;-71
2021/10/02 03:34:59;;;;;;;61.03;39.33;;;;;;;;;;5054847;28;20635;-72
2021/10/02 03:37:26;;;;;;;46.53;34.07;;;;;;;;;;5053383;28;20754;-72
2021/10/02 03:39:54;;;;;;;48.97;35.47;;;;;;;;;;5055648;28;20385;-72
2021/10/02 03:42:22;;;;;;;74.93;41.00;;;;;;;;;;5054223;28;20292;-72
2021/10/02 03:44:52;;;;;;;60.20;39.10;;;;;;;;;;5054808;28;20298;-71
2021/10/02 03:47:22;;;;;;;60.20;39.23;;;;;;;;;;5054080;28;20267;-71
2021/10/02 03:49:49;;;;;;;52.07;38.00;;;;;;;;;;5054941;28;20230;-71
2021/10/02 03:52:15;;;;;;;57.83;37.80;;;;;;;;;;5054335;28;20263;-71
2021/10/02 03:54:42;;;;;;;61.93;38.47;;;;;;;;;;5056931;28;20279;-71
2021/10/02 03:57:09;;;;;;;53.37;36.23;;;;;;;;;;5055232;28;21302;-71
2021/10/02 03:59:35;;;;;;;57.00;35.90;;;;;;;;;;5054422;28;20267;-71
2021/10/02 04:02:03;;;;;;;60.17;39.00;;;;;;;;;;5055788;28;20256;-71
2021/10/02 04:04:30;;;;;;;62.97;39.33;;;;;;;;;;5052815;28;20268;-71
2021/10/02 04:06:56;;;;;;;56.97;35.90;;;;;;;;;;5057220;28;20675;-71
2021/10/02 04:09:24;;;;;;;64.73;39.37;;;;;;;;;;5056021;28;20616;-71
2021/10/02 04:11:51;;;;;;;73.10;42.73;;;;;;;;;;5054474;28;20727;-72
2021/10/02 04:14:17;;;;;;;56.60;36.63;;;;;;;;;;5054376;28;20653;-72
2021/10/02 04:16:43;;;;;;;61.00;37.80;;;;;;;;;;5054285;28;20283;-71
2021/10/02 04:19:11;;;;;;;71.97;41.33;;;;;;;;;;5055317;28;20283;-71
2021/10/02 04:21:38;;;;;;;66.80;39.83;;;;;;;;;;5054482;28;20278;-71
2021/10/02 04:24:05;;;;;;;75.17;41.37;;;;;;;;;;5055122;28;20215;-71
2021/10/02 04:26:31;;;;;;;62.47;37.03;;;;;;;;;;5055251;28;20210;-72
2021/10/02 04:28:58;;;;;;;84.53;41.67;;;;;;;;;;5057205;28;20209;-72
2021/10/02 04:31:24;;;;;;;66.70;39.40;;;;;;;;;;5059562;28;20269;-75
2021/10/02 04:33:51;;;;;;;87.37;43.60;;;;;;;;;;5058913;28;20252;-75
2021/10/02 04:36:19;;;;;;;74.43;39.63;;;;;;;;;;5059352;28;20287;-75
2021/10/02 04:38:46;;;;;;;84.97;42.27;;;;;;;;;;5056671;28;20290;-75
2021/10/02 04:41:12;;;;;;;79.90;41.43;;;;;;;;;;5058845;28;20221;-75
2021/10/02 04:43:41;;;;;;;82.40;42.67;;;;;;;;;;5058596;28;20214;-75
2021/10/02 04:46:08;;;;;;;104.53;45.63;;;;;;;;;;5057590;28;20301;-75
2021/10/02 04:48:35;;;;;;;81.90;42.73;;;;;;;;;;5058015;28;20217;-75
2021/10/02 04:51:01;;;;;;;99.27;46.53;;;;;;;;;;5057609;28;20292;-75
2021/10/02 04:53:29;;;;;;;84.73;43.27;;;;;;;;;;5058797;28;20218;-75
2021/10/02 04:55:59;;;;;;;67.20;39.23;;;;;;;;;;5056803;28;20234;-75
2021/10/02 04:58:25;;;;;;;78.13;38.93;;;;;;;;;;5057717;28;20657;-75
2021/10/02 05:00:52;;;;;;;81.97;42.33;;;;;;;;;;5057600;28;20233;-74
2021/10/02 05:03:18;;;;;;;88.83;41.60;;;;;;;;;;5059289;28;20260;-75
2021/10/02 05:05:44;;;;;;;83.67;42.20;;;;;;;;;;5058257;28;20896;-75
2021/10/02 05:08:11;;;;;;;77.10;41.60;;;;;;;;;;5057923;28;20543;-75
2021/10/02 05:10:39;;;;;;;74.97;39.47;;;;;;;;;;5058265;28;20771;-75
2021/10/02 05:13:06;;;;;;;89.07;41.90;;;;;;;;;;5056856;28;20210;-75
2021/10/02 05:15:33;;;;;;;79.23;40.33;;;;;;;;;;5057772;28;20253;-75
2021/10/02 05:18:00;;;;;;;72.80;39.10;;;;;;;;;;5057688;28;21258;-75
2021/10/02 05:20:26;;;;;;;80.73;39.77;;;;;;;;;;5059073;28;20226;-75
2021/10/02 05:22:53;;;;;;;88.90;41.40;;;;;;;;;;5058358;28;20264;-75
2021/10/02 05:25:19;;;;;;;66.57;38.17;;;;;;;;;;5057400;28;20209;-74
2021/10/02 05:27:47;;;;;;;80.70;39.70;;;;;;;;;;5057421;28;20654;-74
2021/10/02 05:30:13;;;;;;;79.50;39.27;;;;;;;;;;5055062;28;20222;-74
2021/10/02 05:32:39;;;;;;;85.57;42.30;;;;;;;;;;5055036;28;20217;-74
2021/10/02 05:35:07;;;;;;;82.83;40.33;;;;;;;;;;5056519;28;20238;-74
2021/10/02 05:37:34;;;;;;;61.83;36.07;;;;;;;;;;5055864;28;20221;-74
2021/10/02 05:40:00;;;;;;;78.70;37.87;;;;;;;;;;5057154;28;20612;-75
2021/10/02 05:42:27;;;;;;;60.00;34.90;;;;;;;;;;5055173;28;20276;-75
2021/10/02 05:44:55;;;;;;;69.77;35.77;;;;;;;;;;5057266;28;20221;-75
2021/10/02 05:47:21;;;;;;;63.10;35.27;;;;;;;;;;5056248;28;20214;-74
2021/10/02 05:49:48;;;;;;;80.70;39.87;;;;;;;;;;5054743;28;20254;-75
2021/10/02 05:52:14;;;;;;;59.13;34.53;;;;;;;;;;5055094;28;20332;-74
2021/10/02 05:54:41;;;;;;;69.60;37.57;;;;;;;;;;5055397;28;20697;-75
2021/10/02 05:57:08;;;;;;;66.40;36.40;;;;;;;;;;5056557;28;20237;-74
2021/10/02 05:59:35;;;;;;;64.07;36.50;;;;;;;;;;5055362;28;20219;-75
2021/10/02 06:02:03;;;;;;;64.27;34.33;;;;;;;;;;5056523;28;20279;-74
2021/10/02 06:04:29;;;;;;;63.73;36.23;;;;;;;;;;5053430;28;20222;-74
2021/10/02 06:06:56;;;;;;;96.43;41.00;;;;;;;;;;5055167;28;20207;-74
2021/10/02 06:09:22;;;;;;;70.50;34.60;;;;;;;;;;5054862;28;21187;-74
2021/10/02 06:11:50;;;;;;;72.80;37.57;;;;;;;;;;5053736;28;20234;-74
2021/10/02 06:14:16;;;;;;;78.27;39.17;;;;;;;;;;5054657;28;20233;-74
2021/10/02 06:16:43;;;;;;;73.47;38.37;;;;;;;;;;5056195;28;20566;-74
2021/10/02 06:19:11;;;;;;;83.87;41.80;;;;;;;;;;5054123;28;20383;-74
2021/10/02 06:21:37;;;;;;;85.90;40.97;;;;;;;;;;5055648;28;20237;-74
2021/10/02 06:24:04;;;;;;;73.70;38.77;;;;;;;;;;5054027;28;20213;-74
2021/10/02 06:26:35;;;;;;;72.97;39.50;;;;;;;;;;5053149;28;20257;-74
2021/10/02 06:29:01;;;;;;;112.73;43.83;;;;;;;;;;5054217;28;20297;-74
2021/10/02 06:31:28;;;;;;;79.20;40.50;;;;;;;;;;5054105;28;20256;-74
2021/10/02 06:33:54;;;;;;;67.83;37.00;;;;;;;;;;5052355;28;20550;-74
2021/10/02 06:36:22;;;;;;;98.80;42.77;;;;;;;;;;5051774;28;20246;-74
2021/10/02 06:38:49;;;;;;;63.43;34.57;;;;;;;;;;5055352;28;20218;-74
2021/10/02 06:41:15;;;;;;;65.00;33.77;;;;;;;;;;5051002;28;20222;-75
2021/10/02 06:43:41;;;;;;;63.00;34.37;;;;;;;;;;5056097;28;20270;-74
2021/10/02 06:46:08;;;;;;;69.97;36.80;;;;;;;;;;5054215;28;20664;-74
2021/10/02 06:48:34;;;;;;;59.80;33.63;;;;;;;;;;5054515;28;20218;-74
2021/10/02 06:51:01;;;;;;;54.53;31.67;;;;;;;;;;5051318;28;20261;-74
2021/10/02 06:53:28;;;;;;;57.97;32.90;;;;;;;;;;5053882;28;20218;-74
2021/10/02 06:55:55;;;;;;;50.13;29.73;;;;;;;;;;5052849;28;20239;-74
2021/10/02 06:58:21;;;;;;;55.03;30.43;;;;;;;;;;5055923;28;20213;-73
2021/10/02 07:00:48;;;;;;;49.57;30.40;;;;;;;;;;5052844;28;20263;-73
2021/10/02 07:03:15;;;;;;;51.27;30.50;;;;;;;;;;5054358;28;20202;-73
2021/10/02 07:05:41;;;;;;;39.40;29.90;;;;;;;;;;5053816;28;20260;-73
2021/10/02 07:08:08;;;;;;;44.27;29.23;;;;;;;;;;5053125;28;21195;-73
2021/10/02 07:10:35;;;;;;;40.03;28.27;;;;;;;;;;5053745;28;21294;-72
2021/10/02 07:13:02;;;;;;;43.50;28.87;;;;;;;;;;5053651;28;20271;-72
2021/10/02 07:15:29;;;;;;;45.80;28.60;;;;;;;;;;5052746;28;20215;-73
2021/10/02 07:17:56;;;;;;;46.33;29.27;;;;;;;;;;5054044;28;20225;-72
2021/10/02 07:20:25;;;;;;;38.27;28.23;;;;;;;;;;5054114;28;20685;-73
2021/10/02 07:22:51;;;;;;;39.13;28.03;;;;;;;;;;5052893;28;20218;-73
2021/10/02 07:25:18;;;;;;;39.07;28.00;;;;;;;;;;5053556;28;20214;-73
2021/10/02 07:27:46;;;;;;;37.53;26.93;;;;;;;;;;5052734;28;20799;-73
2021/10/02 07:30:14;;;;;;;39.77;29.30;;;;;;;;;;5051331;28;20287;-73
2021/10/02 07:32:41;;;;;;;39.50;28.37;;;;;;;;;;5049615;28;20210;-73
2021/10/02 07:35:09;;;;;;;37.97;29.50;;;;;;;;;;5051093;28;20235;-72
2021/10/02 07:37:36;;;;;;;36.70;29.30;;;;;;;;;;5050784;28;20628;-72
2021/10/02 07:40:04;;;;;;;41.50;28.93;;;;;;;;;;5052677;28;20267;-72
2021/10/02 07:42:31;;;;;;;35.80;29.33;;;;;;;;;;5053949;28;20210;-72
2021/10/02 07:45:04;;;;;;;38.03;29.83;;;;;;;;;;5054000;28;20221;-73
2021/10/02 07:47:33;;;;;;;39.83;29.63;;;;;;;;;;5052397;28;20309;-72
2021/10/02 07:50:00;;;;;;;36.07;27.90;;;;;;;;;;5053983;28;20223;-71
2021/10/02 07:52:28;;;;;;;35.83;27.00;;;;;;;;;;5051510;28;21071;-74
2021/10/02 07:54:54;;;;;;;34.60;26.67;;;;;;;;;;5052816;28;20225;-71
2021/10/02 07:57:21;;;;;;;34.87;27.30;;;;;;;;;;5054923;28;20226;-72
2021/10/02 07:59:47;;;;;;;38.73;27.63;;;;;;;;;;5052217;28;20215;-72
2021/10/02 08:02:18;;;;;;;38.40;28.93;;;;;;;;;;5052856;28;20214;-72
2021/10/02 08:04:46;;;;;;;35.67;28.57;;;;;;;;;;5053521;28;20917;-72
2021/10/02 08:07:13;;;;;;;35.00;28.20;;;;;;;;;;5053388;28;20214;-72
2021/10/02 08:09:41;;;;;;;35.73;27.40;;;;;;;;;;5055196;28;20276;-72
2021/10/02 08:12:08;;;;;;;33.77;28.43;;;;;;;;;;5049812;28;20884;-75
2021/10/02 08:14:36;;;;;;;37.80;26.90;;;;;;;;;;5052594;28;20561;-72
2021/10/02 08:17:03;;;;;;;34.87;26.73;;;;;;;;;;5054164;28;20328;-73
2021/10/02 08:19:34;;;;;;;35.37;27.10;;;;;;;;;;5050149;28;20261;-72
2021/10/02 08:22:00;;;;;;;33.10;28.23;;;;;;;;;;5054217;28;20255;-74
2021/10/02 08:24:27;;;;;;;34.40;27.90;;;;;;;;;;5051906;28;20221;-74
2021/10/02 08:26:54;;;;;;;37.90;28.50;;;;;;;;;;5050537;28;20270;-72
2021/10/02 08:29:22;;;;;;;36.00;27.70;;;;;;;;;;5051638;28;20218;-74
2021/10/02 08:31:48;;;;;;;35.73;27.63;;;;;;;;;;5053043;28;20214;-72
2021/10/02 08:34:15;;;;;;;36.27;28.93;;;;;;;;;;5052468;28;20311;-72
2021/10/02 08:36:43;;;;;;;35.60;27.83;;;;;;;;;;5053134;28;20238;-72
2021/10/02 08:39:11;;;;;;;32.83;27.07;;;;;;;;;;5052797;28;20245;-72
2021/10/02 08:41:39;;;;;;;34.57;26.13;;;;;;;;;;5052437;28;20229;-72
2021/10/02 08:44:06;;;;;;;30.50;25.23;;;;;;;;;;5052513;28;20272;-72
2021/10/02 08:46:33;;;;;;;29.40;24.80;;;;;;;;;;5052767;28;20217;-72
2021/10/02 08:49:18;;;;;;;30.20;24.37;;;;;;;;;;5052598;28;20222;-72
2021/10/02 08:51:48;;;;;;;28.90;24.20;;;;;;;;;;5053514;28;20229;-72
2021/10/02 08:54:16;;;;;;;27.97;23.47;;;;;;;;;;5051223;28;20222;-72
2021/10/02 08:56:44;;;;;;;31.93;27.83;;;;;;;;;;5053791;28;21126;-72
2021/10/02 08:59:13;;;;;;;33.43;25.90;;;;;;;;;;5052128;28;20214;-72
2021/10/02 09:01:40;;;;;;;30.90;23.93;;;;;;;;;;5051958;28;20234;-72
2021/10/02 09:04:06;;;;;;;25.83;22.33;;;;;;;;;;5053252;28;21214;-72
2021/10/02 09:06:33;;;;;;;25.00;20.43;;;;;;;;;;5053003;28;20237;-72
2021/10/02 09:09:01;;;;;;;25.70;21.23;;;;;;;;;;5051310;28;20268;-72
2021/10/02 09:11:28;;;;;;;25.67;21.80;;;;;;;;;;5050710;28;20299;-71
2021/10/02 09:13:55;;;;;;;26.37;21.97;;;;;;;;;;5054674;28;20713;-71
2021/10/02 09:16:21;;;;;;;25.60;22.43;;;;;;;;;;5055760;28;20273;-71
2021/10/02 09:18:48;;;;;;;28.10;22.50;;;;;;;;;;5054837;28;20761;-71
2021/10/02 09:21:14;;;;;;;29.67;21.23;;;;;;;;;;5056250;28;20284;-71
2021/10/02 09:23:41;;;;;;;28.87;23.67;;;;;;;;;;5052719;28;20254;-72
2021/10/02 09:26:10;;;;;;;25.10;21.47;;;;;;;;;;5056971;28;20775;-71
2021/10/02 09:28:41;;;;;;;22.83;19.97;;;;;;;;;;5053997;28;21380;-71
2021/10/02 09:31:08;;;;;;;22.13;18.20;;;;;;;;;;5055229;28;20214;-71
2021/10/02 09:33:36;;;;;;;22.57;18.07;;;;;;;;;;5053548;28;20513;-71
2021/10/02 09:36:02;;;;;;;21.77;18.97;;;;;;;;;;5052907;28;20235;-72
2021/10/02 09:38:33;;;;;;;21.93;18.30;;;;;;;;;;5054884;28;20239;-74
2021/10/02 09:41:01;;;;;;;19.90;17.80;;;;;;;;;;5054566;28;20209;-72
2021/10/02 09:43:31;;;;;;;20.93;17.53;;;;;;;;;;5053943;28;20265;-72
2021/10/02 09:45:59;;;;;;;22.17;16.23;;;;;;;;;;5055425;28;20247;-71
2021/10/02 09:48:28;;;;;;;17.20;15.40;;;;;;;;;;5054490;28;20212;-72
2021/10/02 09:50:54;;;;;;;16.77;15.03;;;;;;;;;;5055965;28;20267;-72
2021/10/02 09:53:21;;;;;;;23.03;15.30;;;;;;;;;;5054567;28;20220;-72
2021/10/02 09:55:49;;;;;;;15.73;12.90;;;;;;;;;;5054356;28;20266;-72
2021/10/02 09:58:18;;;;;;;15.13;13.00;;;;;;;;;;5056762;28;20236;-71
2021/10/02 10:00:47;;;;;;;16.03;13.07;;;;;;;;;;5055011;28;20279;-72
2021/10/02 10:03:16;;;;;;;16.17;13.63;;;;;;;;;;5055187;28;20214;-71
2021/10/02 10:05:44;;;;;;;19.30;13.00;;;;;;;;;;5057690;28;20352;-72
2021/10/02 10:08:13;;;;;;;14.50;12.80;;;;;;;;;;5054087;28;20219;-71
2021/10/02 10:10:42;;;;;;;13.60;10.57;;;;;;;;;;5054890;28;20254;-72
2021/10/02 10:13:12;;;;;;;11.93;10.73;;;;;;;;;;5056146;28;20213;-72
2021/10/02 10:15:40;;;;;;;10.77;9.67;;;;;;;;;;5056538;28;20248;-72
2021/10/02 10:18:11;;;;;;;8.80;7.20;;;;;;;;;;5055259;28;20252;-72
2021/10/02 10:20:41;;;;;;;8.77;7.60;;;;;;;;;;5054638;28;20277;-72
2021/10/02 10:23:09;;;;;;;12.20;8.70;;;;;;;;;;5055491;28;20230;-71
2021/10/02 10:25:48;;;;;;;9.43;8.33;;;;;;;;;;5055863;28;20228;-72
2021/10/02 10:28:18;;;;;;;12.80;8.10;;;;;;;;;;5055594;28;20280;-71
2021/10/02 10:30:47;;;;;;;11.43;8.67;;;;;;;;;;5054369;28;20240;-72
2021/10/02 10:33:15;;;;;;;9.30;6.73;;;;;;;;;;5055181;28;20271;-72
2021/10/02 10:35:44;;;;;;;9.67;7.30;;;;;;;;;;5054748;28;20256;-72
2021/10/02 10:38:13;;;;;;;11.23;7.67;;;;;;;;;;5053898;28;20279;-72
2021/10/02 10:40:40;;;;;;;11.87;7.23;;;;;;;;;;5053404;28;20210;-71
2021/10/02 10:43:06;;;;;;;11.43;6.70;;;;;;;;;;5056586;28;20275;-72
2021/10/02 10:45:34;;;;;;;10.60;7.63;;;;;;;;;;5052713;28;20210;-71
2021/10/02 10:48:01;;;;;;;8.97;7.13;;;;;;;;;;5055942;28;20325;-72
2021/10/02 10:50:29;;;;;;;11.03;7.37;;;;;;;;;;5054016;28;20226;-72
2021/10/02 10:53:00;;;;;;;10.00;6.87;;;;;;;;;;5053647;28;20272;-72
2021/10/02 10:55:26;;;;;;;11.53;6.63;;;;;;;;;;5055630;28;20257;-72
2021/10/02 10:57:55;;;;;;;10.97;7.57;;;;;;;;;;5053926;28;20316;-72
2021/10/02 11:00:38;;;;;;;13.63;7.53;;;;;;;;;;5054159;28;20787;-71
2021/10/02 11:03:07;;;;;;;9.33;7.10;;;;;;;;;;5054732;28;21153;-72
2021/10/02 11:06:02;;;;;;;9.17;6.80;;;;;;;;;;5053828;28;20237;-72
2021/10/02 11:09:00;;;;;;;8.73;6.30;;;;;;;;;;5053453;28;20207;-72
2021/10/02 11:11:55;;;;;;;8.33;6.10;;;;;;;;;;5052285;28;20273;-71
2021/10/02 11:14:24;;;;;;;10.90;6.47;;;;;;;;;;5051453;28;20217;-71
2021/10/02 11:17:01;;;;;;;10.20;6.00;;;;;;;;;;5053445;28;20218;-71
2021/10/02 11:19:32;;;;;;;10.17;6.43;;;;;;;;;;5053215;28;20738;-72
2021/10/02 11:22:30;;;;;;;9.57;5.90;;;;;;;;;;5053252;28;21074;-71
2021/10/02 11:24:59;;;;;;;9.20;5.00;;;;;;;;;;5019848;28;20214;-71
2021/10/02 11:27:26;;;;;;;11.20;6.07;;;;;;;;;;5054355;28;20241;-71
2021/10/02 11:29:54;;;;;;;10.00;5.87;;;;;;;;;;5052810;28;20255;-71
2021/10/02 11:32:26;;;;;;;8.47;5.23;;;;;;;;;;5050863;28;20645;-71
2021/10/02 11:35:14;;;;;;;6.97;5.80;;;;;;;;;;5051765;28;20559;-72
2021/10/02 11:37:44;;;;;;;9.77;6.07;;;;;;;;;;5052368;28;20238;-72
2021/10/02 11:40:46;;;;;;;13.70;6.70;;;;;;;;;;5052814;28;20431;-72
2021/10/02 11:43:23;;;;;;;10.50;6.33;;;;;;;;;;5053082;28;20323;-72
2021/10/02 11:46:06;;;;;;;12.13;6.40;;;;;;;;;;5052704;28;20206;-72
2021/10/02 11:48:45;;;;;;;9.93;6.53;;;;;;;;;;5053774;28;20203;-72
2021/10/02 11:51:26;;;;;;;11.57;7.53;;;;;;;;;;5052395;28;20226;-72
2021/10/02 11:53:56;;;;;;;10.50;6.27;;;;;;;;;;5053013;28;20206;-72
2021/10/02 11:56:24;;;;;;;12.80;6.97;;;;;;;;;;5052516;28;20236;-72
2021/10/02 11:58:54;;;;;;;12.03;8.03;;;;;;;;;;5053275;28;20239;-72
2021/10/02 12:01:23;;;;;;;11.43;7.60;;;;;;;;;;5052493;28;20250;-72
2021/10/02 12:03:58;;;;;;;10.50;6.60;;;;;;;;;;5050875;28;20209;-72
2021/10/02 12:06:24;;;;;;;10.53;7.27;;;;;;;;;;5050642;28;20223;-72
2021/10/02 12:08:51;;;;;;;10.33;6.27;;;;;;;;;;5051435;28;20206;-72
2021/10/02 12:11:19;;;;;;;8.90;6.70;;;;;;;;;;5051700;28;20238;-72
2021/10/02 12:13:50;;;;;;;10.47;7.07;;;;;;;;;;5049798;28;20264;-72
2021/10/02 12:16:18;;;;;;;9.63;6.50;;;;;;;;;;5052194;28;20211;-71
2021/10/02 12:18:53;;;;;;;10.70;6.90;;;;;;;;;;5051343;28;20235;-72
2021/10/02 12:21:48;;;;;;;10.80;7.60;;;;;;;;;;5052002;28;21037;-72
2021/10/02 12:24:20;;;;;;;13.07;7.73;;;;;;;;;;5054240;28;20216;-72
2021/10/02 12:26:51;;;;;;;13.43;7.90;;;;;;;;;;5052804;28;20265;-72
2021/10/02 12:29:20;;;;;;;8.73;7.30;;;;;;;;;;5053721;28;20210;-72
2021/10/02 12:31:50;;;;;;;8.10;6.77;;;;;;;;;;5049363;28;20211;-72
2021/10/02 12:34:19;;;;;;;10.53;7.17;;;;;;;;;;5054902;28;21037;-72
2021/10/02 12:36:49;;;;;;;10.70;7.50;;;;;;;;;;5053397;28;20273;-72
2021/10/02 12:39:17;;;;;;;11.60;8.30;;;;;;;;;;5051298;28;20224;-72
2021/10/02 12:41:46;;;;;;;10.33;7.30;;;;;;;;;;5050404;28;20243;-72
2021/10/02 12:44:23;;;;;;;9.20;7.27;;;;;;;;;;5052981;28;20211;-72
2021/10/02 12:46:50;;;;;;;11.70;6.77;;;;;;;;;;5053841;28;20228;-72
2021/10/02 12:49:18;;;;;;;7.93;6.87;;;;;;;;;;5057121;28;20209;-72
2021/10/02 12:51:45;;;;;;;11.57;6.40;;;;;;;;;;5056659;28;20226;-71
2021/10/02 12:54:17;;;;;;;8.57;5.83;;;;;;;;;;5056651;28;20226;-71
2021/10/02 12:57:03;;;;;;;8.40;5.93;;;;;;;;;;5057511;28;20278;-70
2021/10/02 12:59:43;;;;;;;7.97;5.60;;;;;;;;;;5053389;28;20232;-72
2021/10/02 13:02:11;;;;;;;7.60;5.93;;;;;;;;;;5056604;28;20516;-71
2021/10/02 13:04:38;;;;;;;7.80;5.40;;;;;;;;;;5055712;28;20233;-72
2021/10/02 13:07:06;;;;;;;7.23;4.53;;;;;;;;;;5056346;28;20262;-72
2021/10/02 13:09:58;;;;;;;6.50;4.47;;;;;;;;;;5055006;28;20220;-71
2021/10/02 13:12:26;;;;;;;6.13;4.37;;;;;;;;;;5056474;28;20236;-71
2021/10/02 13:14:55;;;;;;;6.03;3.73;;;;;;;;;;5053866;28;20598;-72
2021/10/02 13:17:22;;;;;;;5.73;2.70;;;;;;;;;;5056073;28;20217;-72
2021/10/02 13:19:49;;;;;;;5.93;3.30;;;;;;;;;;5055317;28;20632;-72
2021/10/02 13:22:18;;;;;;;5.27;3.27;;;;;;;;;;5056145;28;20212;-71
2021/10/02 13:25:07;;;;;;;5.80;3.13;;;;;;;;;;5056737;28;20288;-72
2021/10/02 13:27:36;;;;;;;4.13;2.83;;;;;;;;;;5056568;28;20212;-72
2021/10/02 13:30:11;;;;;;;3.63;2.80;;;;;;;;;;5056366;28;20212;-71
2021/10/02 13:32:38;;;;;;;5.60;2.37;;;;;;;;;;5055038;28;20207;-72
2021/10/02 13:35:07;;;;;;;3.60;2.53;;;;;;;;;;5053682;28;20690;-70
2021/10/02 13:37:34;;;;;;;4.23;2.30;;;;;;;;;;5053071;28;20239;-70
2021/10/02 13:40:04;;;;;;;6.33;2.07;;;;;;;;;;5055848;28;20348;-71
2021/10/02 13:42:31;;;;;;;5.03;1.83;;;;;;;;;;5054127;28;20642;-71
2021/10/02 13:44:58;;;;;;;5.87;2.10;;;;;;;;;;5053987;28;20220;-71
2021/10/02 13:47:27;;;;;;;4.73;2.10;;;;;;;;;;5054285;28;20252;-71
2021/10/02 13:49:53;;;;;;;3.43;2.33;;;;;;;;;;5056694;28;20821;-71
2021/10/02 13:52:20;;;;;;;2.57;1.87;;;;;;;;;;5055302;28;20229;-71
2021/10/02 13:54:47;;;;;;;4.50;1.60;;;;;;;;;;5053735;28;20264;-71
2021/10/02 13:57:13;;;;;;;3.47;2.00;;;;;;;;;;5055729;28;20266;-71
2021/10/02 13:59:40;;;;;;;4.70;1.93;;;;;;;;;;5054313;28;20317;-71
2021/10/02 14:02:06;;;;;;;4.40;2.10;;;;;;;;;;5054485;28;20221;-71
2021/10/02 14:04:34;;;;;;;3.00;1.80;;;;;;;;;;5052627;28;20216;-71
2021/10/02 14:07:03;;;;;;;3.20;2.00;;;;;;;;;;5055084;28;20300;-72
2021/10/02 14:09:29;;;;;;;4.13;2.03;;;;;;;;;;5055281;28;20217;-72
2021/10/02 14:11:55;;;;;;;3.53;1.87;;;;;;;;;;5056593;28;20253;-72
2021/10/02 14:14:22;;;;;;;4.00;2.30;;;;;;;;;;5055688;28;20226;-71
2021/10/02 14:16:48;;;;;;;3.20;2.40;;;;;;;;;;5055308;28;20211;-72
2021/10/02 14:19:15;;;;;;;4.10;2.00;;;;;;;;;;5055568;28;20235;-72
2021/10/02 14:21:43;;;;;;;5.80;2.43;;;;;;;;;;5052868;28;20694;-72
2021/10/02 14:24:09;;;;;;;3.40;2.20;;;;;;;;;;5055481;28;20280;-72
2021/10/02 14:26:35;;;;;;;5.73;2.07;;;;;;;;;;5053284;28;20215;-73
2021/10/02 14:29:02;;;;;;;5.50;2.10;;;;;;;;;;5055959;28;20208;-73
2021/10/02 14:31:28;;;;;;;4.93;2.30;;;;;;;;;;5054913;28;20216;-73
2021/10/02 14:33:54;;;;;;;5.00;2.30;;;;;;;;;;5053877;28;20651;-73
2021/10/02 14:36:21;;;;;;;2.73;1.80;;;;;;;;;;5053450;28;20287;-73
2021/10/02 14:38:49;;;;;;;4.27;2.00;;;;;;;;;;5052466;28;20288;-73
2021/10/02 14:41:15;;;;;;;3.27;2.20;;;;;;;;;;5052200;28;20242;-73
2021/10/02 14:43:43;;;;;;;4.60;2.30;;;;;;;;;;5055157;28;20217;-73
2021/10/02 14:46:10;;;;;;;3.50;2.00;;;;;;;;;;5053244;28;20285;-73
2021/10/02 14:48:36;;;;;;;4.73;2.50;;;;;;;;;;5052514;28;20218;-74
2021/10/02 14:51:03;;;;;;;4.43;2.63;;;;;;;;;;5053092;28;20690;-73
2021/10/02 14:53:30;;;;;;;3.60;1.80;;;;;;;;;;5050932;28;20275;-74
2021/10/02 14:55:59;;;;;;;4.20;2.10;;;;;;;;;;5056395;28;20261;-74
2021/10/02 14:58:26;;;;;;;4.47;2.47;;;;;;;;;;5053484;28;20576;-73
2021/10/02 15:00:54;;;;;;;4.90;2.53;;;;;;;;;;5051867;28;20214;-72
2021/10/02 15:03:22;;;;;;;4.07;2.30;;;;;;;;;;5053939;28;20228;-72
2021/10/02 15:05:51;;;;;;;4.20;2.90;;;;;;;;;;5054106;28;20234;-72
2021/10/02 15:08:18;;;;;;;3.23;2.50;;;;;;;;;;5053445;28;20648;-73
2021/10/02 15:10:44;;;;;;;3.00;2.30;;;;;;;;;;5051797;28;20246;-73
2021/10/02 15:13:12;;;;;;;2.93;2.27;;;;;;;;;;5051713;28;20210;-73
2021/10/02 15:15:39;;;;;;;4.10;1.80;;;;;;;;;;5053428;28;20296;-73
2021/10/02 15:18:11;;;;;;;2.10;1.90;;;;;;;;;;5055095;28;20218;-73
2021/10/02 15:20:38;;;;;;;4.37;2.00;;;;;;;;;;5052275;28;20594;-73
2021/10/02 15:23:05;;;;;;;2.17;2.00;;;;;;;;;;5052442;28;20657;-73